createdAt,value
2018-05-07T00:00:46.583Z,0.00
2018-05-07T00:01:46.736Z,0.00
2018-05-07T00:02:46.889Z,0.00
2018-05-07T00:03:47.082Z,0.00
2018-05-07T00:04:47.193Z,0.00
2018-05-07T00:05:47.413Z,0.00
2018-05-07T00:06:47.509Z,0.00
2018-05-07T00:07:47.657Z,0.00
2018-05-07T00:08:47.813Z,0.00
2018-05-07T00:09:47.978Z,0.00
2018-05-07T00:10:48.118Z,0.00
2018-05-07T00:11:48.283Z,0.00
2018-05-07T00:12:48.421Z,0.00
2018-05-07T00:13:48.573Z,0.00
2018-05-07T00:14:48.724Z,0.00
2018-05-07T00:15:48.877Z,0.00
2018-05-07T00:16:49.028Z,0.00
2018-05-07T00:17:49.181Z,0.00
2018-05-07T00:18:49.332Z,0.00
2018-05-07T00:19:49.486Z,0.00
2018-05-07T00:20:49.644Z,0.00
2018-05-07T00:21:49.795Z,0.00
2018-05-07T00:22:49.947Z,0.00
2018-05-07T00:23:50.098Z,0.00
2018-05-07T00:24:50.250Z,0.00
2018-05-07T00:25:50.402Z,0.00
2018-05-07T00:26:50.555Z,0.00
2018-05-07T00:27:50.707Z,0.00
2018-05-07T00:28:50.860Z,0.00
2018-05-07T00:29:51.018Z,0.00
2018-05-07T00:30:51.166Z,0.00
2018-05-07T00:31:51.319Z,0.00
2018-05-07T00:32:51.474Z,0.00
2018-05-07T00:33:51.625Z,0.00
2018-05-07T00:34:51.775Z,0.00
2018-05-07T00:35:51.925Z,0.00
2018-05-07T00:36:52.079Z,0.00
2018-05-07T00:37:52.231Z,0.00
2018-05-07T00:38:52.381Z,0.00
2018-05-07T00:39:52.539Z,0.00
2018-05-07T00:40:52.694Z,0.00
2018-05-07T00:41:52.842Z,0.00
2018-05-07T00:42:52.994Z,0.00
2018-05-07T00:43:53.142Z,0.00
2018-05-07T00:44:53.293Z,0.00
2018-05-07T00:45:53.446Z,0.00
2018-05-07T00:46:53.599Z,0.00
2018-05-07T00:47:53.749Z,0.00
2018-05-07T00:48:53.901Z,0.00
2018-05-07T00:49:54.053Z,0.00
2018-05-07T00:50:54.206Z,0.00
2018-05-07T00:51:54.361Z,0.00
2018-05-07T00:52:54.511Z,0.00
2018-05-07T00:53:54.662Z,0.00
2018-05-07T00:54:54.813Z,0.00
2018-05-07T00:55:54.966Z,0.00
2018-05-07T00:56:55.117Z,0.00
2018-05-07T00:57:55.269Z,0.00
2018-05-07T00:58:55.418Z,0.00
2018-05-07T00:59:55.570Z,0.00
2018-05-07T01:00:55.726Z,0.00
2018-05-07T01:01:55.873Z,0.00
2018-05-07T01:02:56.026Z,0.00
2018-05-07T01:03:56.174Z,0.00
2018-05-07T01:04:56.329Z,0.00
2018-05-07T01:05:56.478Z,0.00
2018-05-07T01:06:56.630Z,0.00
2018-05-07T01:07:56.780Z,0.00
2018-05-07T01:08:56.933Z,0.00
2018-05-07T01:09:57.084Z,0.00
2018-05-07T01:10:57.234Z,0.00
2018-05-07T01:11:57.385Z,0.00
2018-05-07T01:12:57.536Z,0.00
2018-05-07T01:13:57.688Z,0.00
2018-05-07T01:14:57.838Z,0.00
2018-05-07T01:15:57.990Z,0.00
2018-05-07T01:16:58.141Z,0.00
2018-05-07T01:17:58.301Z,0.00
2018-05-07T01:18:58.446Z,0.00
2018-05-07T01:19:58.600Z,0.00
2018-05-07T01:20:58.748Z,0.00
2018-05-07T01:21:58.899Z,0.00
2018-05-07T01:22:59.053Z,0.00
2018-05-07T01:23:59.203Z,0.00
2018-05-07T01:24:59.350Z,0.00
2018-05-07T01:25:59.507Z,0.00
2018-05-07T01:26:59.660Z,0.00
2018-05-07T01:27:59.810Z,0.00
2018-05-07T01:28:59.962Z,0.00
2018-05-07T01:30:00.122Z,0.00
2018-05-07T01:31:00.259Z,0.00
2018-05-07T01:32:00.423Z,0.00
2018-05-07T01:33:00.575Z,0.00
2018-05-07T01:34:00.724Z,0.00
2018-05-07T01:35:00.880Z,0.00
2018-05-07T01:36:01.034Z,0.00
2018-05-07T01:37:01.185Z,0.00
2018-05-07T01:38:01.335Z,0.00
2018-05-07T01:39:01.488Z,0.00
2018-05-07T01:40:01.638Z,0.00
2018-05-07T01:41:01.792Z,0.00
2018-05-07T01:42:01.945Z,0.00
2018-05-07T01:43:02.096Z,0.00
2018-05-07T01:44:02.246Z,0.00
2018-05-07T01:45:02.397Z,0.00
2018-05-07T01:46:02.547Z,0.00
2018-05-07T01:47:02.699Z,0.00
2018-05-07T01:48:02.850Z,0.00
2018-05-07T01:49:03.003Z,0.00
2018-05-07T01:50:03.154Z,0.00
2018-05-07T01:51:03.307Z,0.00
2018-05-07T01:52:03.463Z,0.00
2018-05-07T01:53:03.621Z,0.00
2018-05-07T01:54:03.775Z,0.00
2018-05-07T01:55:03.914Z,0.00
2018-05-07T01:56:04.065Z,0.00
2018-05-07T01:57:04.216Z,0.00
2018-05-07T01:58:04.368Z,0.00
2018-05-07T01:59:04.521Z,0.00
2018-05-07T02:00:04.677Z,0.00
2018-05-07T02:01:04.828Z,0.00
2018-05-07T02:02:04.979Z,0.00
2018-05-07T02:03:05.135Z,0.00
2018-05-07T02:04:05.322Z,0.00
2018-05-07T02:05:05.430Z,0.00
2018-05-07T02:06:05.581Z,0.00
2018-05-07T02:07:05.732Z,0.00
2018-05-07T02:08:05.883Z,0.00
2018-05-07T02:09:06.033Z,0.00
2018-05-07T02:10:06.189Z,0.00
2018-05-07T02:11:06.339Z,0.00
2018-05-07T02:12:06.492Z,0.00
2018-05-07T02:13:06.642Z,0.00
2018-05-07T02:14:06.795Z,0.00
2018-05-07T02:15:06.947Z,0.00
2018-05-07T02:16:07.101Z,0.00
2018-05-07T02:17:07.250Z,0.00
2018-05-07T02:18:07.400Z,0.00
2018-05-07T02:19:07.555Z,0.00
2018-05-07T02:20:07.707Z,0.00
2018-05-07T02:21:07.863Z,0.00
2018-05-07T02:22:08.014Z,0.00
2018-05-07T02:23:08.169Z,0.00
2018-05-07T02:24:08.319Z,0.00
2018-05-07T02:25:08.469Z,0.00
2018-05-07T02:26:08.619Z,0.00
2018-05-07T02:27:08.771Z,0.00
2018-05-07T02:28:08.924Z,0.00
2018-05-07T02:29:09.073Z,0.00
2018-05-07T02:30:09.228Z,0.00
2018-05-07T02:31:09.378Z,0.00
2018-05-07T02:32:09.531Z,0.00
2018-05-07T02:33:09.681Z,0.00
2018-05-07T02:34:09.834Z,0.00
2018-05-07T02:35:09.992Z,0.00
2018-05-07T02:36:10.137Z,0.00
2018-05-07T02:37:10.292Z,0.00
2018-05-07T02:38:10.440Z,0.00
2018-05-07T02:39:10.592Z,0.00
2018-05-07T02:40:10.744Z,0.00
2018-05-07T02:41:10.895Z,0.00
2018-05-07T02:42:11.046Z,0.00
2018-05-07T02:43:11.197Z,0.00
2018-05-07T02:44:11.348Z,0.00
2018-05-07T02:45:11.501Z,0.00
2018-05-07T02:46:11.650Z,0.00
2018-05-07T02:47:11.802Z,0.00
2018-05-07T02:48:11.954Z,0.00
2018-05-07T02:49:12.106Z,0.00
2018-05-07T02:50:12.248Z,0.00
2018-05-07T02:51:12.452Z,0.00
2018-05-07T02:52:12.581Z,0.00
2018-05-07T02:53:12.734Z,0.00
2018-05-07T02:54:12.884Z,0.00
2018-05-07T02:55:13.036Z,0.00
2018-05-07T02:56:13.188Z,0.00
2018-05-07T02:57:13.339Z,0.00
2018-05-07T02:58:13.492Z,0.00
2018-05-07T02:59:13.641Z,0.00
2018-05-07T03:00:13.795Z,0.00
2018-05-07T03:01:13.948Z,0.00
2018-05-07T03:02:14.098Z,0.00
2018-05-07T03:03:14.250Z,0.00
2018-05-07T03:04:14.401Z,0.00
2018-05-07T03:05:14.554Z,0.00
2018-05-07T03:06:14.705Z,0.00
2018-05-07T03:07:14.857Z,0.00
2018-05-07T03:08:15.007Z,0.00
2018-05-07T03:09:15.160Z,0.00
2018-05-07T03:10:15.317Z,0.00
2018-05-07T03:11:15.462Z,0.00
2018-05-07T03:12:15.634Z,0.00
2018-05-07T03:13:15.769Z,0.00
2018-05-07T03:14:15.917Z,0.00
2018-05-07T03:15:16.069Z,0.00
2018-05-07T03:16:16.218Z,0.00
2018-05-07T03:17:16.371Z,0.00
2018-05-07T03:18:16.522Z,0.00
2018-05-07T03:19:16.673Z,0.00
2018-05-07T03:20:16.823Z,0.00
2018-05-07T03:21:16.975Z,0.00
2018-05-07T03:22:17.127Z,0.00
2018-05-07T03:23:17.274Z,0.00
2018-05-07T03:24:17.427Z,0.00
2018-05-07T03:25:17.577Z,0.00
2018-05-07T03:26:17.727Z,0.00
2018-05-07T03:27:17.878Z,0.00
2018-05-07T03:28:18.029Z,0.00
2018-05-07T03:29:18.180Z,0.00
2018-05-07T03:30:18.331Z,5.63
2018-05-07T03:31:18.487Z,5.63
2018-05-07T03:32:18.642Z,5.63
2018-05-07T03:33:18.793Z,5.63
2018-05-07T03:34:18.943Z,5.63
2018-05-07T03:35:19.097Z,5.63
2018-05-07T03:36:19.247Z,5.63
2018-05-07T03:37:19.397Z,11.25
2018-05-07T03:38:19.549Z,11.25
2018-05-07T03:39:19.698Z,11.25
2018-05-07T03:40:19.852Z,11.25
2018-05-07T03:41:20.003Z,11.25
2018-05-07T03:42:20.153Z,16.88
2018-05-07T03:43:20.302Z,16.88
2018-05-07T03:44:20.457Z,16.88
2018-05-07T03:45:20.604Z,16.88
2018-05-07T03:46:20.753Z,22.50
2018-05-07T03:47:20.902Z,22.50
2018-05-07T03:48:21.054Z,22.50
2018-05-07T03:49:21.204Z,28.13
2018-05-07T03:50:21.358Z,28.13
2018-05-07T03:51:21.508Z,28.13
2018-05-07T03:52:21.658Z,33.75
2018-05-07T03:53:21.807Z,33.75
2018-05-07T03:54:21.959Z,33.75
2018-05-07T03:55:22.111Z,39.38
2018-05-07T03:56:22.261Z,39.38
2018-05-07T03:57:22.409Z,39.38
2018-05-07T03:58:22.566Z,45.00
2018-05-07T03:59:22.711Z,45.00
2018-05-07T04:00:22.863Z,50.63
2018-05-07T04:01:23.029Z,50.63
2018-05-07T04:02:23.166Z,50.63
2018-05-07T04:03:23.319Z,56.25
2018-05-07T04:04:23.468Z,56.25
2018-05-07T04:05:23.621Z,61.88
2018-05-07T04:06:23.771Z,61.88
2018-05-07T04:07:23.935Z,61.88
2018-05-07T04:08:24.071Z,67.50
2018-05-07T04:09:24.222Z,67.50
2018-05-07T04:10:24.373Z,73.13
2018-05-07T04:11:24.524Z,73.13
2018-05-07T04:12:24.679Z,73.13
2018-05-07T04:13:24.834Z,78.75
2018-05-07T04:14:24.976Z,78.75
2018-05-07T04:15:25.130Z,84.38
2018-05-07T04:16:25.279Z,84.38
2018-05-07T04:17:25.429Z,90.00
2018-05-07T04:18:25.580Z,90.00
2018-05-07T04:19:25.730Z,95.63
2018-05-07T04:20:25.883Z,95.63
2018-05-07T04:21:26.033Z,101.25
2018-05-07T04:22:26.184Z,101.25
2018-05-07T04:23:26.412Z,106.88
2018-05-07T04:24:26.487Z,106.88
2018-05-07T04:25:26.637Z,112.50
2018-05-07T04:26:26.802Z,118.13
2018-05-07T04:27:26.934Z,118.13
2018-05-07T04:28:27.084Z,123.75
2018-05-07T04:29:27.234Z,123.75
2018-05-07T04:30:27.385Z,123.75
2018-05-07T04:31:27.536Z,129.38
2018-05-07T04:32:27.691Z,129.38
2018-05-07T04:33:27.837Z,135.00
2018-05-07T04:34:27.988Z,135.00
2018-05-07T04:35:28.138Z,140.63
2018-05-07T04:36:28.294Z,140.63
2018-05-07T04:37:28.440Z,146.25
2018-05-07T04:38:28.592Z,146.25
2018-05-07T04:39:28.741Z,151.88
2018-05-07T04:40:28.893Z,151.88
2018-05-07T04:41:29.044Z,151.88
2018-05-07T04:42:29.196Z,157.50
2018-05-07T04:43:29.346Z,157.50
2018-05-07T04:44:29.495Z,163.13
2018-05-07T04:45:29.648Z,163.13
2018-05-07T04:46:29.800Z,163.13
2018-05-07T04:47:29.952Z,168.75
2018-05-07T04:48:30.103Z,168.75
2018-05-07T04:49:30.255Z,174.38
2018-05-07T04:50:30.406Z,174.38
2018-05-07T04:51:30.557Z,174.38
2018-05-07T04:52:30.708Z,180.00
2018-05-07T04:53:30.854Z,180.00
2018-05-07T04:54:31.010Z,180.00
2018-05-07T04:55:31.160Z,185.63
2018-05-07T04:56:31.313Z,185.63
2018-05-07T04:57:31.463Z,191.25
2018-05-07T04:58:31.628Z,191.25
2018-05-07T04:59:31.759Z,191.25
2018-05-07T05:00:31.909Z,196.88
2018-05-07T05:01:32.061Z,196.88
2018-05-07T05:02:32.217Z,196.88
2018-05-07T05:03:32.387Z,202.50
2018-05-07T05:04:32.530Z,202.50
2018-05-07T05:05:32.655Z,208.13
2018-05-07T05:06:32.810Z,208.13
2018-05-07T05:07:32.962Z,208.13
2018-05-07T05:08:33.104Z,213.75
2018-05-07T05:09:33.254Z,213.75
2018-05-07T05:10:33.408Z,213.75
2018-05-07T05:11:33.563Z,219.38
2018-05-07T05:12:33.716Z,219.38
2018-05-07T05:13:33.867Z,225.00
2018-05-07T05:14:34.021Z,225.00
2018-05-07T05:15:34.170Z,225.00
2018-05-07T05:16:34.320Z,230.63
2018-05-07T05:17:34.475Z,230.63
2018-05-07T05:18:34.625Z,236.25
2018-05-07T05:19:34.779Z,236.25
2018-05-07T05:20:34.929Z,241.88
2018-05-07T05:21:35.082Z,241.88
2018-05-07T05:22:35.224Z,241.88
2018-05-07T05:23:35.378Z,247.50
2018-05-07T05:24:35.530Z,247.50
2018-05-07T05:25:35.678Z,247.50
2018-05-07T05:26:35.833Z,253.13
2018-05-07T05:27:35.983Z,253.13
2018-05-07T05:28:36.146Z,253.13
2018-05-07T05:29:36.275Z,258.75
2018-05-07T05:30:36.432Z,258.75
2018-05-07T05:31:36.590Z,258.75
2018-05-07T05:32:36.741Z,264.38
2018-05-07T05:33:36.893Z,264.38
2018-05-07T05:34:37.045Z,264.38
2018-05-07T05:35:37.198Z,264.38
2018-05-07T05:36:37.347Z,270.00
2018-05-07T05:37:37.502Z,270.00
2018-05-07T05:38:37.653Z,270.00
2018-05-07T05:39:37.807Z,275.63
2018-05-07T05:40:37.958Z,275.63
2018-05-07T05:41:38.117Z,275.63
2018-05-07T05:42:38.262Z,275.63
2018-05-07T05:43:38.522Z,281.25
2018-05-07T05:44:38.565Z,281.25
2018-05-07T05:45:38.722Z,281.25
2018-05-07T05:46:38.870Z,281.25
2018-05-07T05:47:39.023Z,281.25
2018-05-07T05:48:39.174Z,286.88
2018-05-07T05:49:39.326Z,286.88
2018-05-07T05:50:39.480Z,286.88
2018-05-07T05:51:39.631Z,286.88
2018-05-07T05:52:39.783Z,286.88
2018-05-07T05:53:39.961Z,292.50
2018-05-07T05:54:40.089Z,292.50
2018-05-07T05:55:40.309Z,292.50
2018-05-07T05:56:40.392Z,292.50
2018-05-07T05:57:40.549Z,292.50
2018-05-07T05:58:40.697Z,298.13
2018-05-07T05:59:40.850Z,298.13
2018-05-07T06:00:41.001Z,298.13
2018-05-07T06:01:41.155Z,298.13
2018-05-07T06:02:41.307Z,298.13
2018-05-07T06:03:41.569Z,298.13
2018-05-07T06:04:41.614Z,303.75
2018-05-07T06:05:41.765Z,303.75
2018-05-07T06:06:41.916Z,303.75
2018-05-07T06:07:42.069Z,303.75
2018-05-07T06:08:42.230Z,303.75
2018-05-07T06:09:42.374Z,303.75
2018-05-07T06:10:42.526Z,303.75
2018-05-07T06:11:42.682Z,309.38
2018-05-07T06:12:42.833Z,309.38
2018-05-07T06:13:42.984Z,309.38
2018-05-07T06:14:43.202Z,309.38
2018-05-07T06:15:43.294Z,309.38
2018-05-07T06:16:43.442Z,309.38
2018-05-07T06:17:43.595Z,309.38
2018-05-07T06:18:43.747Z,309.38
2018-05-07T06:19:43.900Z,309.38
2018-05-07T06:20:44.053Z,315.00
2018-05-07T06:21:44.207Z,315.00
2018-05-07T06:22:44.361Z,315.00
2018-05-07T06:23:44.513Z,315.00
2018-05-07T06:24:44.668Z,315.00
2018-05-07T06:25:44.819Z,315.00
2018-05-07T06:26:44.973Z,315.00
2018-05-07T06:27:45.125Z,315.00
2018-05-07T06:28:45.277Z,315.00
2018-05-07T06:29:45.431Z,315.00
2018-05-07T06:30:45.611Z,320.63
2018-05-07T06:31:45.738Z,320.63
2018-05-07T06:32:45.896Z,320.63
2018-05-07T06:33:46.048Z,320.63
2018-05-07T06:34:46.202Z,320.63
2018-05-07T06:35:46.357Z,320.63
2018-05-07T06:36:46.508Z,320.63
2018-05-07T06:37:46.665Z,320.63
2018-05-07T06:38:46.816Z,320.63
2018-05-07T06:39:46.971Z,320.63
2018-05-07T06:40:47.122Z,320.63
2018-05-07T06:41:47.283Z,320.63
2018-05-07T06:42:47.433Z,326.25
2018-05-07T06:43:47.586Z,326.25
2018-05-07T06:44:47.742Z,326.25
2018-05-07T06:45:47.948Z,326.25
2018-05-07T06:46:48.050Z,326.25
2018-05-07T06:47:48.204Z,326.25
2018-05-07T06:48:48.364Z,326.25
2018-05-07T06:49:48.521Z,326.25
2018-05-07T06:50:48.696Z,326.25
2018-05-07T06:51:48.817Z,326.25
2018-05-07T06:52:48.972Z,326.25
2018-05-07T06:53:49.129Z,326.25
2018-05-07T06:54:49.281Z,331.88
2018-05-07T06:55:49.433Z,331.88
2018-05-07T06:56:49.588Z,331.88
2018-05-07T06:57:49.742Z,331.88
2018-05-07T06:58:49.897Z,331.88
2018-05-07T06:59:50.052Z,331.88
2018-05-07T07:00:50.204Z,331.88
2018-05-07T07:01:50.364Z,331.88
2018-05-07T07:02:50.644Z,331.88
2018-05-07T07:03:50.678Z,331.88
2018-05-07T07:04:50.827Z,331.88
2018-05-07T07:05:50.983Z,331.88
2018-05-07T07:06:51.138Z,331.88
2018-05-07T07:07:51.290Z,337.50
2018-05-07T07:08:51.443Z,337.50
2018-05-07T07:09:51.599Z,337.50
2018-05-07T07:10:51.755Z,337.50
2018-05-07T07:11:51.912Z,337.50
2018-05-07T07:12:52.068Z,337.50
2018-05-07T07:13:52.222Z,337.50
2018-05-07T07:14:52.381Z,337.50
2018-05-07T07:15:52.533Z,337.50
2018-05-07T07:16:52.688Z,337.50
2018-05-07T07:17:52.843Z,337.50
2018-05-07T07:18:52.999Z,337.50
2018-05-07T07:19:53.168Z,337.50
2018-05-07T07:20:53.307Z,343.13
2018-05-07T07:21:53.522Z,343.13
2018-05-07T07:22:53.625Z,343.13
2018-05-07T07:23:53.767Z,343.13
2018-05-07T07:24:53.921Z,343.13
2018-05-07T07:25:54.076Z,343.13
2018-05-07T07:26:54.232Z,343.13
2018-05-07T07:27:54.391Z,343.13
2018-05-07T07:28:54.541Z,343.13
2018-05-07T07:29:54.696Z,343.13
2018-05-07T07:30:54.852Z,343.13
2018-05-07T07:31:55.007Z,343.13
2018-05-07T07:32:55.162Z,348.75
2018-05-07T07:33:55.398Z,348.75
2018-05-07T07:34:55.469Z,348.75
2018-05-07T07:35:55.626Z,348.75
2018-05-07T07:36:55.781Z,348.75
2018-05-07T07:37:55.937Z,348.75
2018-05-07T07:38:56.095Z,348.75
2018-05-07T07:39:56.249Z,348.75
2018-05-07T07:40:56.406Z,348.75
2018-05-07T07:41:56.559Z,348.75
2018-05-07T07:42:56.717Z,348.75
2018-05-07T07:43:56.872Z,348.75
2018-05-07T07:44:57.026Z,348.75
2018-05-07T07:45:57.180Z,348.75
2018-05-07T07:46:57.342Z,354.38
2018-05-07T07:47:57.492Z,354.38
2018-05-07T07:48:57.647Z,354.38
2018-05-07T07:49:57.802Z,354.38
2018-05-07T07:50:57.957Z,354.38
2018-05-07T07:51:58.114Z,354.38
2018-05-07T07:52:58.271Z,354.38
2018-05-07T07:53:58.428Z,354.38
2018-05-07T07:54:58.585Z,354.38
2018-05-07T07:55:58.742Z,354.38
2018-05-07T07:56:58.900Z,354.38
2018-05-07T07:57:59.056Z,360.00
2018-05-07T07:58:59.214Z,360.00
2018-05-07T07:59:59.368Z,360.00
2018-05-07T08:00:59.526Z,360.00
2018-05-07T08:01:59.680Z,360.00
2018-05-07T08:02:59.840Z,360.00
2018-05-07T08:03:59.990Z,360.00
2018-05-07T08:05:00.145Z,360.00
2018-05-07T08:06:00.302Z,360.00
2018-05-07T08:07:00.460Z,360.00
2018-05-07T08:08:00.617Z,360.00
2018-05-07T08:09:00.772Z,365.63
2018-05-07T08:10:00.930Z,365.63
2018-05-07T08:11:01.134Z,365.63
2018-05-07T08:12:01.262Z,365.63
2018-05-07T08:13:01.406Z,365.63
2018-05-07T08:14:01.562Z,365.63
2018-05-07T08:15:01.718Z,365.63
2018-05-07T08:16:01.876Z,365.63
2018-05-07T08:17:02.032Z,365.63
2018-05-07T08:18:02.209Z,365.63
2018-05-07T08:19:02.343Z,371.25
2018-05-07T08:20:02.506Z,371.25
2018-05-07T08:21:02.656Z,371.25
2018-05-07T08:22:02.812Z,371.25
2018-05-07T08:23:02.965Z,371.25
2018-05-07T08:24:03.120Z,371.25
2018-05-07T08:25:03.281Z,371.25
2018-05-07T08:26:03.439Z,371.25
2018-05-07T08:27:03.596Z,371.25
2018-05-07T08:28:03.750Z,376.88
2018-05-07T08:29:03.906Z,376.88
2018-05-07T08:30:04.063Z,376.88
2018-05-07T08:31:04.227Z,376.88
2018-05-07T08:32:04.374Z,376.88
2018-05-07T08:33:04.531Z,376.88
2018-05-07T08:34:04.686Z,376.88
2018-05-07T08:35:04.844Z,376.88
2018-05-07T08:36:05.004Z,376.88
2018-05-07T08:37:05.162Z,382.50
2018-05-07T08:38:05.318Z,382.50
2018-05-07T08:39:05.465Z,382.50
2018-05-07T08:40:05.648Z,382.50
2018-05-07T08:41:05.803Z,382.50
2018-05-07T08:42:05.961Z,382.50
2018-05-07T08:43:06.118Z,382.50
2018-05-07T08:44:06.277Z,382.50
2018-05-07T08:45:06.436Z,388.13
2018-05-07T08:46:06.593Z,388.13
2018-05-07T08:47:06.753Z,388.13
2018-05-07T08:48:06.911Z,388.13
2018-05-07T08:49:07.070Z,388.13
2018-05-07T08:50:07.227Z,388.13
2018-05-07T08:51:07.389Z,388.13
2018-05-07T08:52:07.546Z,388.13
2018-05-07T08:53:07.748Z,388.13
2018-05-07T08:54:07.857Z,388.13
2018-05-07T08:55:08.015Z,393.75
2018-05-07T08:56:08.167Z,393.75
2018-05-07T08:57:08.329Z,393.75
2018-05-07T08:58:08.505Z,393.75
2018-05-07T08:59:08.650Z,393.75
2018-05-07T09:00:08.809Z,393.75
2018-05-07T09:01:08.971Z,393.75
2018-05-07T09:02:09.185Z,399.38
2018-05-07T09:03:09.284Z,399.38
2018-05-07T09:04:09.458Z,399.38
2018-05-07T09:05:09.615Z,399.38
2018-05-07T09:06:09.742Z,399.38
2018-05-07T09:07:09.901Z,399.38
2018-05-07T09:08:10.096Z,399.38
2018-05-07T09:09:10.215Z,399.38
2018-05-07T09:10:10.375Z,399.38
2018-05-07T09:11:10.536Z,399.38
2018-05-07T09:12:10.689Z,399.38
2018-05-07T09:13:10.847Z,405.00
2018-05-07T09:14:11.010Z,405.00
2018-05-07T09:15:11.170Z,405.00
2018-05-07T09:16:11.322Z,405.00
2018-05-07T09:17:11.493Z,405.00
2018-05-07T09:18:11.646Z,405.00
2018-05-07T09:19:11.804Z,405.00
2018-05-07T09:20:11.967Z,410.63
2018-05-07T09:21:12.118Z,410.63
2018-05-07T09:22:12.277Z,410.63
2018-05-07T09:23:12.431Z,410.63
2018-05-07T09:24:12.595Z,410.63
2018-05-07T09:25:12.753Z,410.63
2018-05-07T09:26:12.911Z,410.63
2018-05-07T09:27:13.076Z,410.63
2018-05-07T09:28:13.231Z,416.25
2018-05-07T09:29:13.392Z,416.25
2018-05-07T09:30:13.552Z,416.25
2018-05-07T09:31:13.712Z,416.25
2018-05-07T09:32:13.870Z,416.25
2018-05-07T09:33:14.028Z,416.25
2018-05-07T09:34:14.183Z,416.25
2018-05-07T09:35:14.344Z,421.88
2018-05-07T09:36:14.512Z,421.88
2018-05-07T09:37:14.660Z,421.88
2018-05-07T09:38:14.813Z,421.88
2018-05-07T09:39:14.974Z,421.88
2018-05-07T09:40:15.130Z,421.88
2018-05-07T09:41:15.282Z,427.50
2018-05-07T09:42:15.435Z,427.50
2018-05-07T09:43:15.613Z,427.50
2018-05-07T09:44:15.747Z,427.50
2018-05-07T09:45:15.909Z,427.50
2018-05-07T09:46:16.073Z,427.50
2018-05-07T09:47:16.218Z,427.50
2018-05-07T09:48:16.385Z,427.50
2018-05-07T09:49:16.535Z,427.50
2018-05-07T09:50:16.692Z,427.50
2018-05-07T09:51:16.855Z,433.13
2018-05-07T09:52:17.014Z,433.13
2018-05-07T09:53:17.174Z,433.13
2018-05-07T09:54:17.331Z,433.13
2018-05-07T09:55:17.489Z,433.13
2018-05-07T09:56:17.648Z,433.13
2018-05-07T09:57:17.805Z,433.13
2018-05-07T09:58:17.967Z,438.75
2018-05-07T09:59:18.126Z,438.75
2018-05-07T10:00:18.283Z,438.75
2018-05-07T10:01:18.444Z,438.75
2018-05-07T10:02:18.611Z,438.75
2018-05-07T10:03:18.767Z,444.38
2018-05-07T10:04:18.927Z,444.38
2018-05-07T10:05:19.085Z,444.38
2018-05-07T10:06:19.246Z,444.38
2018-05-07T10:07:19.406Z,444.38
2018-05-07T10:08:19.567Z,444.38
2018-05-07T10:09:19.725Z,444.38
2018-05-07T10:10:19.885Z,444.38
2018-05-07T10:11:20.043Z,444.38
2018-05-07T10:12:20.201Z,450.00
2018-05-07T10:13:20.361Z,450.00
2018-05-07T10:14:20.521Z,450.00
2018-05-07T10:15:20.687Z,450.00
2018-05-07T10:16:20.836Z,455.63
2018-05-07T10:17:20.993Z,450.00
2018-05-07T10:18:21.159Z,450.00
2018-05-07T10:19:21.315Z,455.63
2018-05-07T10:20:21.475Z,455.63
2018-05-07T10:21:21.635Z,455.63
2018-05-07T10:22:21.793Z,455.63
2018-05-07T10:23:21.960Z,455.63
2018-05-07T10:24:22.118Z,455.63
2018-05-07T10:25:22.277Z,461.25
2018-05-07T10:26:22.438Z,461.25
2018-05-07T10:27:22.597Z,461.25
2018-05-07T10:28:22.758Z,461.25
2018-05-07T10:29:22.917Z,461.25
2018-05-07T10:30:23.077Z,461.25
2018-05-07T10:31:23.240Z,461.25
2018-05-07T10:32:23.400Z,461.25
2018-05-07T10:33:23.540Z,461.25
2018-05-07T10:34:23.700Z,461.25
2018-05-07T10:35:23.876Z,466.88
2018-05-07T10:36:24.025Z,466.88
2018-05-07T10:37:24.185Z,466.88
2018-05-07T10:38:24.363Z,466.88
2018-05-07T10:39:24.485Z,466.88
2018-05-07T10:40:24.644Z,466.88
2018-05-07T10:41:24.794Z,466.88
2018-05-07T10:42:24.954Z,466.88
2018-05-07T10:43:25.116Z,472.50
2018-05-07T10:44:25.280Z,472.50
2018-05-07T10:45:25.435Z,472.50
2018-05-07T10:46:25.604Z,472.50
2018-05-07T10:47:25.769Z,472.50
2018-05-07T10:48:25.923Z,472.50
2018-05-07T10:49:26.080Z,472.50
2018-05-07T10:50:26.237Z,472.50
2018-05-07T10:51:26.397Z,472.50
2018-05-07T10:52:26.562Z,472.50
2018-05-07T10:53:26.720Z,478.13
2018-05-07T10:54:26.879Z,478.13
2018-05-07T10:55:27.040Z,478.13
2018-05-07T10:56:27.194Z,478.13
2018-05-07T10:57:27.351Z,478.13
2018-05-07T10:58:27.518Z,478.13
2018-05-07T10:59:27.677Z,478.13
2018-05-07T11:00:27.833Z,478.13
2018-05-07T11:01:27.997Z,478.13
2018-05-07T11:02:28.157Z,483.75
2018-05-07T11:03:28.318Z,478.13
2018-05-07T11:04:28.496Z,478.13
2018-05-07T11:05:28.635Z,483.75
2018-05-07T11:06:28.780Z,483.75
2018-05-07T11:07:28.995Z,483.75
2018-05-07T11:08:29.097Z,483.75
2018-05-07T11:09:29.251Z,483.75
2018-05-07T11:10:29.422Z,483.75
2018-05-07T11:11:29.581Z,489.38
2018-05-07T11:12:29.738Z,489.38
2018-05-07T11:13:29.911Z,489.38
2018-05-07T11:14:30.063Z,489.38
2018-05-07T11:15:30.220Z,489.38
2018-05-07T11:16:30.380Z,489.38
2018-05-07T11:17:30.540Z,489.38
2018-05-07T11:18:30.701Z,489.38
2018-05-07T11:19:30.863Z,489.38
2018-05-07T11:20:31.028Z,495.00
2018-05-07T11:21:31.189Z,495.00
2018-05-07T11:22:31.350Z,495.00
2018-05-07T11:23:31.510Z,495.00
2018-05-07T11:24:31.669Z,489.38
2018-05-07T11:25:31.831Z,495.00
2018-05-07T11:26:31.992Z,495.00
2018-05-07T11:27:32.156Z,495.00
2018-05-07T11:28:32.315Z,495.00
2018-05-07T11:29:32.478Z,495.00
2018-05-07T11:30:32.644Z,500.63
2018-05-07T11:31:32.824Z,495.00
2018-05-07T11:32:32.968Z,495.00
2018-05-07T11:33:33.116Z,495.00
2018-05-07T11:34:33.326Z,500.63
2018-05-07T11:35:33.426Z,500.63
2018-05-07T11:36:33.587Z,500.63
2018-05-07T11:37:33.739Z,500.63
2018-05-07T11:38:33.903Z,500.63
2018-05-07T11:39:34.063Z,500.63
2018-05-07T11:40:34.223Z,500.63
2018-05-07T11:41:34.387Z,500.63
2018-05-07T11:42:34.540Z,506.25
2018-05-07T11:43:34.702Z,506.25
2018-05-07T11:44:34.860Z,506.25
2018-05-07T11:45:35.022Z,506.25
2018-05-07T11:46:35.182Z,506.25
2018-05-07T11:47:35.468Z,506.25
2018-05-07T11:48:35.505Z,506.25
2018-05-07T11:49:35.653Z,506.25
2018-05-07T11:50:35.819Z,506.25
2018-05-07T11:51:35.980Z,506.25
2018-05-07T11:52:36.140Z,506.25
2018-05-07T11:53:36.323Z,506.25
2018-05-07T11:54:36.466Z,506.25
2018-05-07T11:55:36.616Z,506.25
2018-05-07T11:56:36.777Z,511.88
2018-05-07T11:57:36.936Z,511.88
2018-05-07T11:58:37.093Z,511.88
2018-05-07T11:59:37.260Z,511.88
2018-05-07T12:00:37.413Z,511.88
2018-05-07T12:01:37.578Z,511.88
2018-05-07T12:02:37.744Z,511.88
2018-05-07T12:03:37.894Z,511.88
2018-05-07T12:04:38.055Z,511.88
2018-05-07T12:05:38.216Z,517.50
2018-05-07T12:06:38.373Z,517.50
2018-05-07T12:07:38.538Z,517.50
2018-05-07T12:08:38.703Z,517.50
2018-05-07T12:09:38.866Z,517.50
2018-05-07T12:10:39.027Z,517.50
2018-05-07T12:11:39.184Z,517.50
2018-05-07T12:12:39.330Z,517.50
2018-05-07T12:13:39.492Z,517.50
2018-05-07T12:14:39.649Z,517.50
2018-05-07T12:15:39.813Z,517.50
2018-05-07T12:16:39.973Z,517.50
2018-05-07T12:17:40.135Z,517.50
2018-05-07T12:18:40.303Z,517.50
2018-05-07T12:19:40.467Z,517.50
2018-05-07T12:20:40.622Z,517.50
2018-05-07T12:21:40.784Z,523.13
2018-05-07T12:22:40.947Z,523.13
2018-05-07T12:23:41.110Z,523.13
2018-05-07T12:24:41.274Z,523.13
2018-05-07T12:25:41.435Z,523.13
2018-05-07T12:26:41.590Z,523.13
2018-05-07T12:27:41.748Z,523.13
2018-05-07T12:28:41.908Z,523.13
2018-05-07T12:29:42.078Z,523.13
2018-05-07T12:30:42.245Z,523.13
2018-05-07T12:31:42.533Z,523.13
2018-05-07T12:32:42.561Z,528.75
2018-05-07T12:33:42.725Z,528.75
2018-05-07T12:34:42.881Z,528.75
2018-05-07T12:35:43.044Z,528.75
2018-05-07T12:36:43.210Z,528.75
2018-05-07T12:37:43.378Z,528.75
2018-05-07T12:38:43.533Z,528.75
2018-05-07T12:39:43.696Z,528.75
2018-05-07T12:40:43.865Z,528.75
2018-05-07T12:41:44.020Z,528.75
2018-05-07T12:42:44.184Z,528.75
2018-05-07T12:43:44.346Z,528.75
2018-05-07T12:44:44.505Z,528.75
2018-05-07T12:45:44.662Z,528.75